createdAt,value
2022-12-14T00:04:11.405Z,10.43
2022-12-14T00:09:13.077Z,12.60
2022-12-14T00:14:14.632Z,10.90
2022-12-14T00:19:16.216Z,9.23
2022-12-14T00:24:17.783Z,13.80
2022-12-14T00:29:19.386Z,13.13
2022-12-14T00:34:21.036Z,11.15
2022-12-14T00:39:22.671Z,13.50
2022-12-14T00:44:24.249Z,12.93
2022-12-14T00:49:25.944Z,13.43
2022-12-14T00:54:27.487Z,12.10
2022-12-14T00:59:29.123Z,12.23
2022-12-14T01:04:31.371Z,16.17
2022-12-14T01:09:33.000Z,14.65
2022-12-14T01:14:34.732Z,11.52
2022-12-14T01:19:36.298Z,11.68
2022-12-14T01:24:37.976Z,10.25
2022-12-14T01:29:39.570Z,15.40
2022-12-14T01:34:41.071Z,14.05
2022-12-14T01:39:42.602Z,14.10
2022-12-14T01:44:44.136Z,13.10
2022-12-14T01:50:04.928Z,10.70
2022-12-14T01:55:19.960Z,11.35
2022-12-14T02:00:21.957Z,11.23
2022-12-14T02:05:24.988Z,10.13
2022-12-14T02:10:29.842Z,12.30
2022-12-14T02:15:32.395Z,11.70
2022-12-14T02:21:06.053Z,9.57
2022-12-14T02:26:28.735Z,12.95
2022-12-14T02:31:55.228Z,13.50
2022-12-14T02:37:30.032Z,10.50
2022-12-14T02:42:48.210Z,8.55
2022-12-14T02:47:55.001Z,13.20
2022-12-14T02:53:15.023Z,9.00
2022-12-14T02:58:45.074Z,14.95
2022-12-14T03:03:46.776Z,10.32
2022-12-14T03:08:48.318Z,9.73
2022-12-14T03:14:03.241Z,9.88
2022-12-14T03:19:28.822Z,9.70
2022-12-14T03:24:38.951Z,9.88
2022-12-14T03:29:53.819Z,8.32
2022-12-14T03:35:01.745Z,8.80
2022-12-14T03:40:06.386Z,10.50
2022-12-14T03:45:21.584Z,11.00
2022-12-14T03:50:28.072Z,8.07
2022-12-14T03:56:07.150Z,7.30
2022-12-14T04:01:39.854Z,9.07
2022-12-14T04:06:55.295Z,9.43
2022-12-14T04:12:19.723Z,8.55
2022-12-14T04:17:27.099Z,9.18
2022-12-14T04:22:34.188Z,8.23
2022-12-14T04:27:48.099Z,8.88
2022-12-14T04:32:53.904Z,10.73
2022-12-14T04:38:03.612Z,6.10
2022-12-14T04:43:11.595Z,7.85
2022-12-14T04:48:23.261Z,7.03
2022-12-14T04:53:29.998Z,11.48
2022-12-14T04:58:32.764Z,8.80
2022-12-14T05:03:38.630Z,9.38
2022-12-14T05:08:59.010Z,7.57
2022-12-14T05:14:02.680Z,8.85
2022-12-14T05:19:08.896Z,8.68
2022-12-14T05:24:10.414Z,10.60
2022-12-14T05:29:12.515Z,10.63
2022-12-14T05:34:14.186Z,9.57
2022-12-14T05:39:16.424Z,10.50
2022-12-14T05:44:18.022Z,10.27
2022-12-14T05:49:19.660Z,9.20
2022-12-14T05:54:21.373Z,11.50
2022-12-14T05:59:22.943Z,11.55
2022-12-14T06:04:24.635Z,6.03
2022-12-14T06:09:26.238Z,10.13
2022-12-14T06:14:27.747Z,9.18
2022-12-14T06:19:29.388Z,8.68
2022-12-14T06:24:31.010Z,9.32
2022-12-14T06:29:32.482Z,7.75
2022-12-14T06:34:38.514Z,9.00
2022-12-14T06:39:40.846Z,8.93
2022-12-14T06:44:42.448Z,6.78
2022-12-14T06:49:43.952Z,11.32
2022-12-14T06:54:46.592Z,8.45
2022-12-14T06:59:48.143Z,8.10
2022-12-14T07:04:49.810Z,7.68
2022-12-14T07:09:51.489Z,9.00
2022-12-14T07:14:53.298Z,11.52
2022-12-14T07:19:55.031Z,9.63
2022-12-14T07:24:56.683Z,8.27
2022-12-14T07:29:58.237Z,9.18
2022-12-14T07:34:59.890Z,9.75
2022-12-14T07:40:01.490Z,8.20
2022-12-14T07:45:03.254Z,9.85
2022-12-14T07:50:05.128Z,11.13
2022-12-14T07:55:07.295Z,9.48
2022-12-14T08:00:09.676Z,10.25
2022-12-14T08:05:13.916Z,9.75
2022-12-14T08:10:15.514Z,10.23
2022-12-14T08:15:17.014Z,9.82
2022-12-14T08:20:18.891Z,10.43
2022-12-14T08:25:20.584Z,14.48
2022-12-14T08:30:22.061Z,9.73
2022-12-14T08:35:23.788Z,8.32
2022-12-14T08:40:25.890Z,10.45
2022-12-14T08:45:27.529Z,12.88
2022-12-14T08:50:29.443Z,10.00
2022-12-14T08:55:38.211Z,8.93
2022-12-14T09:00:40.411Z,10.57
2022-12-14T09:05:42.005Z,11.95
2022-12-14T09:10:49.611Z,11.57
2022-12-14T09:16:17.920Z,9.25
2022-12-14T09:21:19.810Z,14.25
2022-12-14T09:26:22.306Z,13.38
2022-12-14T09:31:26.787Z,10.55
2022-12-14T09:36:28.944Z,11.85
2022-12-14T09:41:36.176Z,14.82
2022-12-14T09:46:54.089Z,13.38
2022-12-14T09:51:59.295Z,16.85
2022-12-14T09:57:34.956Z,11.95
2022-12-14T10:03:06.654Z,13.80
2022-12-14T10:08:08.791Z,12.55
2022-12-14T10:13:16.544Z,14.18
2022-12-14T10:18:58.181Z,14.40
2022-12-14T10:24:00.854Z,15.00
2022-12-14T10:29:07.519Z,14.77
2022-12-14T10:39:34.139Z,15.00
2022-12-14T10:44:53.483Z,15.90
2022-12-14T10:50:20.286Z,14.52
2022-12-14T10:55:32.191Z,14.82
2022-12-14T11:00:33.749Z,13.07
2022-12-14T11:05:59.839Z,14.82
2022-12-14T11:11:18.605Z,15.77
2022-12-14T11:16:26.687Z,14.13
2022-12-14T11:21:38.255Z,13.15
2022-12-14T11:26:42.769Z,14.60
2022-12-14T11:31:49.765Z,16.92
2022-12-14T11:36:51.469Z,14.20
2022-12-14T11:41:59.212Z,16.50
2022-12-14T11:47:00.777Z,17.10
2022-12-14T11:52:05.301Z,19.17
2022-12-14T11:57:12.556Z,14.60
2022-12-14T12:02:35.124Z,16.60
2022-12-14T12:07:40.265Z,13.50
2022-12-14T12:12:54.346Z,24.40
2022-12-14T12:18:03.234Z,16.08
2022-12-14T12:23:23.012Z,15.00
2022-12-14T12:28:29.818Z,17.38
2022-12-14T12:33:34.914Z,16.65
2022-12-14T12:38:42.584Z,15.00
2022-12-14T12:43:57.855Z,15.77
2022-12-14T12:49:10.846Z,20.75
2022-12-14T12:54:21.457Z,16.25
2022-12-14T12:59:33.631Z,15.43
2022-12-14T13:04:39.174Z,19.75
2022-12-14T13:09:46.102Z,19.08
2022-12-14T13:14:50.412Z,19.33
2022-12-14T13:19:54.875Z,17.20
2022-12-14T13:25:13.061Z,19.38
2022-12-14T13:30:17.721Z,16.60
2022-12-14T13:35:37.562Z,15.88
2022-12-14T13:41:02.053Z,16.42
2022-12-14T13:46:24.052Z,15.30
2022-12-14T13:51:34.121Z,15.65
2022-12-14T13:56:38.943Z,17.40
2022-12-14T14:01:40.536Z,16.27
2022-12-14T14:06:50.380Z,17.77
2022-12-14T14:12:01.143Z,15.02
2022-12-14T14:17:25.379Z,16.95
2022-12-14T14:22:30.410Z,15.68
2022-12-14T14:27:39.593Z,15.18
2022-12-14T14:32:42.660Z,19.98
2022-12-14T14:37:54.711Z,14.73
2022-12-14T14:43:03.822Z,13.68
2022-12-14T14:48:32.427Z,14.60
2022-12-14T14:53:37.733Z,16.25
2022-12-14T14:58:41.390Z,13.40
2022-12-14T15:04:01.147Z,13.82
2022-12-14T15:09:12.664Z,17.30
2022-12-14T15:14:37.256Z,16.17
2022-12-14T15:19:39.139Z,18.00
2022-12-14T15:24:43.205Z,22.52
2022-12-14T15:29:49.366Z,16.95
2022-12-14T15:34:59.842Z,19.30
2022-12-14T15:40:11.962Z,17.80
2022-12-14T15:45:16.355Z,17.80
2022-12-14T15:50:30.397Z,26.30
2022-12-14T15:55:41.542Z,19.85
2022-12-14T16:00:47.310Z,27.02
2022-12-14T16:05:49.301Z,26.17
2022-12-14T16:10:55.025Z,24.20
2022-12-14T16:15:58.203Z,22.30
2022-12-14T16:21:02.763Z,18.25
2022-12-14T16:26:25.651Z,19.38
2022-12-14T16:31:27.465Z,20.50
2022-12-14T16:36:32.107Z,23.38
2022-12-14T16:41:38.854Z,26.55
2022-12-14T16:46:42.921Z,20.42
2022-12-14T16:52:06.222Z,17.80
2022-12-14T16:57:17.036Z,23.73
2022-12-14T17:02:25.482Z,36.45
2022-12-14T17:07:30.752Z,44.83
2022-12-14T17:12:32.286Z,26.88
2022-12-14T17:17:36.152Z,25.00
2022-12-14T17:22:37.798Z,23.58
2022-12-14T17:27:40.418Z,33.20
2022-12-14T17:32:43.086Z,27.92
2022-12-14T17:37:44.661Z,29.38
2022-12-14T17:42:52.509Z,27.58
2022-12-14T17:47:55.126Z,31.15
2022-12-14T17:52:57.809Z,26.20
2022-12-14T17:57:59.629Z,23.67
2022-12-14T18:03:03.385Z,27.45
2022-12-14T18:08:05.309Z,31.50
2022-12-14T18:13:07.030Z,36.13
2022-12-14T18:18:08.785Z,23.92
2022-12-14T18:23:15.247Z,28.80
2022-12-14T18:33:23.188Z,22.73
2022-12-14T18:38:25.445Z,30.30
2022-12-14T18:43:28.284Z,34.63
2022-12-14T19:08:00.460Z,31.83
2022-12-14T19:13:02.231Z,38.67
2022-12-14T19:18:03.793Z,37.03
2022-12-14T19:23:05.465Z,43.00
2022-12-14T19:33:29.262Z,67.25
2022-12-14T19:38:31.116Z,52.40
2022-12-14T19:43:33.603Z,53.53
2022-12-14T19:48:35.752Z,95.70
2022-12-14T19:53:38.585Z,44.28
2022-12-14T19:58:40.531Z,59.28
2022-12-14T20:03:42.661Z,46.65
2022-12-14T20:08:44.362Z,51.92
2022-12-14T20:13:57.230Z,48.50
2022-12-14T20:19:00.617Z,52.92
2022-12-14T20:24:02.319Z,50.75
2022-12-14T20:29:05.021Z,49.53
2022-12-14T20:34:06.690Z,48.20
2022-12-14T20:39:08.486Z,37.85
2022-12-14T20:44:10.809Z,48.53
2022-12-14T20:49:20.229Z,44.42
2022-12-14T20:54:21.747Z,42.53
2022-12-14T20:59:23.381Z,56.55
2022-12-14T21:04:25.121Z,42.45
2022-12-14T21:09:26.644Z,80.97
2022-12-14T21:14:34.440Z,77.38
2022-12-14T21:19:36.408Z,88.22
2022-12-14T21:25:01.651Z,52.08
2022-12-14T21:29:59.795Z,60.28
2022-12-14T21:35:01.269Z,54.10
2022-12-14T21:40:03.138Z,59.13
2022-12-14T21:45:04.975Z,60.08
2022-12-14T21:50:07.216Z,64.07
2022-12-14T21:55:08.888Z,58.22
2022-12-14T22:00:10.902Z,61.00
2022-12-14T22:05:15.272Z,56.78
2022-12-14T22:10:22.882Z,63.30
2022-12-14T22:15:26.286Z,57.78
2022-12-14T22:20:27.787Z,57.65
2022-12-14T22:25:29.472Z,59.40
2022-12-14T22:30:32.035Z,60.63
2022-12-14T22:35:33.978Z,63.00
2022-12-14T22:40:35.558Z,43.97
2022-12-14T22:45:37.117Z,36.70
2022-12-14T22:50:38.667Z,41.30
2022-12-14T22:55:41.190Z,45.58
2022-12-14T23:00:43.205Z,35.03
2022-12-14T23:05:45.408Z,37.67
2022-12-14T23:10:47.248Z,33.47
2022-12-14T23:15:51.661Z,36.08
2022-12-14T23:20:53.653Z,40.10
2022-12-14T23:25:55.335Z,43.30
2022-12-14T23:30:57.971Z,32.38
2022-12-14T23:36:01.361Z,33.17
2022-12-14T23:41:02.888Z,28.30
2022-12-14T23:46:05.714Z,38.58
2022-12-14T23:51:07.283Z,35.30
2022-12-14T23:56:08.788Z,36.92
